createdAt,value
2022-09-28T00:01:11.549Z,100.00
2022-09-28T00:03:38.552Z,100.00
2022-09-28T00:06:08.404Z,100.00
2022-09-28T00:08:36.613Z,100.00
2022-09-28T00:11:05.738Z,100.00
2022-09-28T00:13:33.353Z,100.00
2022-09-28T00:16:00.036Z,100.00
2022-09-28T00:18:27.178Z,100.00
2022-09-28T00:21:05.832Z,100.00
2022-09-28T00:23:33.380Z,100.00
2022-09-28T00:26:05.138Z,100.00
2022-09-28T00:28:32.289Z,100.00
2022-09-28T00:30:59.314Z,100.00
2022-09-28T00:33:26.039Z,100.00
2022-09-28T00:35:59.434Z,100.00
2022-09-28T00:38:27.981Z,100.00
2022-09-28T00:40:56.017Z,100.00
2022-09-28T00:43:24.655Z,100.00
2022-09-28T00:46:04.207Z,100.00
2022-09-28T00:48:36.372Z,100.00
2022-09-28T00:51:09.246Z,100.00
2022-09-28T00:53:40.571Z,100.00
2022-09-28T00:56:13.235Z,100.00
2022-09-28T00:58:45.560Z,100.00
2022-09-28T01:01:12.803Z,100.00
2022-09-28T01:03:45.344Z,100.00
2022-09-28T01:06:18.346Z,100.00
2022-09-28T01:08:46.525Z,100.00
2022-09-28T01:11:13.212Z,100.00
2022-09-28T01:13:41.215Z,100.00
2022-09-28T01:16:28.900Z,100.00
2022-09-28T01:19:17.950Z,100.00
2022-09-28T01:21:59.620Z,100.00
2022-09-28T01:25:09.000Z,100.00
2022-09-28T01:27:51.643Z,100.00
2022-09-28T01:30:22.039Z,100.00
2022-09-28T01:33:05.590Z,100.00
2022-09-28T01:35:54.528Z,100.00
2022-09-28T01:38:37.202Z,100.00
2022-09-28T01:41:05.616Z,100.00
2022-09-28T01:43:37.936Z,100.00
2022-09-28T01:46:12.412Z,100.00
2022-09-28T01:48:57.154Z,100.00
2022-09-28T01:51:40.501Z,100.00
2022-09-28T01:54:13.419Z,100.00
2022-09-28T01:56:46.604Z,100.00
2022-09-28T01:59:25.110Z,100.00
2022-09-28T02:02:13.465Z,100.00
2022-09-28T02:05:09.115Z,100.00
2022-09-28T02:07:42.624Z,100.00
2022-09-28T02:10:24.906Z,100.00
2022-09-28T02:13:04.848Z,100.00
2022-09-28T02:15:42.537Z,100.00
2022-09-28T02:18:10.275Z,100.00
2022-09-28T02:20:38.772Z,100.00
2022-09-28T02:23:05.822Z,100.00
2022-09-28T02:25:45.137Z,100.00
2022-09-28T02:28:13.658Z,100.00
2022-09-28T02:30:43.046Z,100.00
2022-09-28T02:33:09.654Z,100.00
2022-09-28T02:35:38.630Z,100.00
2022-09-28T02:38:05.316Z,100.00
2022-09-28T02:40:35.690Z,100.00
2022-09-28T02:43:14.821Z,100.00
2022-09-28T02:45:57.328Z,100.00
2022-09-28T02:48:44.086Z,100.00
2022-09-28T02:51:47.338Z,100.00
2022-09-28T02:54:36.938Z,100.00
2022-09-28T02:57:15.629Z,100.00
2022-09-28T03:00:19.607Z,100.00
2022-09-28T03:03:07.403Z,100.00
2022-09-28T03:05:52.223Z,100.00
2022-09-28T03:08:35.551Z,100.00
2022-09-28T03:11:08.922Z,100.00
2022-09-28T03:13:36.067Z,100.00
2022-09-28T03:16:21.372Z,100.00
2022-09-28T03:18:48.213Z,100.00
2022-09-28T03:21:16.029Z,100.00
2022-09-28T03:23:43.012Z,100.00
2022-09-28T03:26:13.371Z,100.00
2022-09-28T03:28:40.700Z,100.00
2022-09-28T03:31:07.555Z,100.00
2022-09-28T03:33:34.329Z,100.00
2022-09-28T03:36:01.162Z,100.00
2022-09-28T03:38:27.912Z,100.00
2022-09-28T03:40:59.232Z,100.00
2022-09-28T03:43:27.240Z,100.00
2022-09-28T03:45:55.615Z,100.00
2022-09-28T03:48:32.163Z,100.00
2022-09-28T03:51:02.139Z,100.00
2022-09-28T03:53:29.918Z,100.00
2022-09-28T03:55:56.909Z,100.00
2022-09-28T03:58:23.660Z,100.00
2022-09-28T04:00:51.632Z,100.00
2022-09-28T04:03:18.338Z,100.00
2022-09-28T04:05:52.889Z,100.00
2022-09-28T04:08:20.007Z,100.00
2022-09-28T04:10:47.600Z,100.00
2022-09-28T04:13:14.999Z,100.00
2022-09-28T04:15:42.107Z,100.00
2022-09-28T04:18:13.620Z,100.00
2022-09-28T04:20:41.630Z,100.00
2022-09-28T04:23:08.493Z,100.00
2022-09-28T04:25:35.161Z,100.00
2022-09-28T04:28:20.596Z,100.00
2022-09-28T04:30:48.148Z,100.00
2022-09-28T04:33:14.955Z,100.00
2022-09-28T04:35:41.838Z,100.00
2022-09-28T04:38:08.491Z,100.00
2022-09-28T04:40:35.253Z,100.00
2022-09-28T04:43:02.021Z,100.00
2022-09-28T04:45:28.853Z,100.00
2022-09-28T04:47:55.663Z,100.00
2022-09-28T04:50:22.371Z,100.00
2022-09-28T04:52:49.063Z,100.00
2022-09-28T04:55:15.790Z,100.00
2022-09-28T04:57:42.721Z,100.00
2022-09-28T05:00:10.749Z,100.00
2022-09-28T05:02:37.507Z,100.00
2022-09-28T05:05:04.651Z,100.00
2022-09-28T05:07:33.795Z,100.00
2022-09-28T05:10:00.710Z,100.00
2022-09-28T05:12:27.429Z,100.00
2022-09-28T05:14:54.116Z,100.00
2022-09-28T05:17:20.806Z,100.00
2022-09-28T05:19:47.546Z,100.00
2022-09-28T05:22:15.161Z,100.00
2022-09-28T05:24:41.918Z,100.00
2022-09-28T05:27:08.824Z,100.00
2022-09-28T05:29:35.592Z,100.00
2022-09-28T05:32:02.470Z,100.00
2022-09-28T05:34:29.501Z,100.00
2022-09-28T05:36:56.203Z,100.00
2022-09-28T05:39:22.830Z,100.00
2022-09-28T05:41:49.654Z,100.00
2022-09-28T05:44:16.370Z,100.00
2022-09-28T05:46:43.215Z,100.00
2022-09-28T05:49:10.151Z,100.00
2022-09-28T05:51:36.946Z,100.00
2022-09-28T05:54:06.171Z,100.00
2022-09-28T05:56:33.294Z,100.00
2022-09-28T05:59:00.211Z,100.00
2022-09-28T06:01:27.120Z,100.00
2022-09-28T06:03:53.887Z,100.00
2022-09-28T06:06:21.169Z,100.00
2022-09-28T06:08:48.617Z,100.00
2022-09-28T06:11:15.348Z,100.00
2022-09-28T06:13:42.037Z,100.00
2022-09-28T06:16:10.627Z,100.00
2022-09-28T06:18:37.379Z,100.00
2022-09-28T06:21:05.964Z,100.00
2022-09-28T06:23:32.767Z,100.00
2022-09-28T06:26:00.141Z,100.00
2022-09-28T06:28:27.065Z,100.00
2022-09-28T06:30:54.214Z,100.00
2022-09-28T06:33:22.010Z,100.00
2022-09-28T06:35:48.737Z,100.00
2022-09-28T06:38:15.390Z,100.00
2022-09-28T06:40:42.201Z,100.00
2022-09-28T06:43:15.228Z,100.00
2022-09-28T06:45:43.666Z,100.00
2022-09-28T06:48:11.369Z,100.00
2022-09-28T06:50:40.681Z,100.00
2022-09-28T06:53:09.689Z,100.00
2022-09-28T06:55:43.523Z,100.00
2022-09-28T06:58:12.377Z,100.00
2022-09-28T07:00:40.835Z,100.00
2022-09-28T07:03:27.794Z,100.00
2022-09-28T07:05:56.118Z,100.00
2022-09-28T07:08:25.408Z,100.00
2022-09-28T07:10:57.022Z,100.00
2022-09-28T07:16:13.404Z,100.00
2022-09-28T07:18:40.757Z,100.00
2022-09-28T07:21:08.634Z,100.00
2022-09-28T07:23:48.346Z,100.00
2022-09-28T07:26:23.079Z,100.00
2022-09-28T07:28:51.060Z,100.00
2022-09-28T07:31:17.843Z,100.00
2022-09-28T07:33:44.887Z,100.00
2022-09-28T07:36:11.905Z,100.00
2022-09-28T07:38:38.686Z,100.00
2022-09-28T07:41:17.167Z,100.00
2022-09-28T07:43:43.984Z,100.00
2022-09-28T07:46:13.508Z,100.00
2022-09-28T07:48:42.726Z,100.00
2022-09-28T07:51:10.446Z,100.00
2022-09-28T07:53:38.537Z,100.00
2022-09-28T07:56:09.528Z,100.00
2022-09-28T07:58:37.992Z,100.00
2022-09-28T08:01:07.617Z,100.00
2022-09-28T08:03:35.433Z,100.00
2022-09-28T08:06:04.813Z,100.00
2022-09-28T08:08:34.146Z,100.00
2022-09-28T08:11:00.929Z,100.00
2022-09-28T08:13:27.722Z,100.00
2022-09-28T08:15:54.970Z,100.00
2022-09-28T08:18:21.967Z,100.00
2022-09-28T08:21:10.665Z,100.00
2022-09-28T08:23:38.526Z,100.00
2022-09-28T08:26:06.029Z,100.00
2022-09-28T08:28:33.165Z,100.00
2022-09-28T08:31:03.860Z,100.00
2022-09-28T08:33:30.909Z,100.00
2022-09-28T08:35:58.972Z,100.00
2022-09-28T08:38:27.091Z,100.00
2022-09-28T08:40:59.146Z,93.94
2022-09-28T08:44:01.710Z,90.90
2022-09-28T08:46:38.784Z,98.83
2022-09-28T08:49:36.866Z,100.00
2022-09-28T08:52:23.563Z,96.96
2022-09-28T08:55:16.914Z,90.25
2022-09-28T08:57:51.085Z,94.97
2022-09-28T09:00:22.017Z,94.17
2022-09-28T09:02:49.519Z,95.61
2022-09-28T09:05:20.072Z,88.01
2022-09-28T09:08:08.082Z,81.07
2022-09-28T09:10:52.307Z,77.02
2022-09-28T09:13:42.771Z,75.08
2022-09-28T09:16:24.370Z,72.16
2022-09-28T09:19:17.445Z,69.85
2022-09-28T09:22:10.174Z,72.59
2022-09-28T09:25:02.848Z,73.01
2022-09-28T09:28:20.200Z,71.03
2022-09-28T09:31:05.335Z,64.81
2022-09-28T09:34:05.741Z,65.05
2022-09-28T09:37:00.035Z,62.67
2022-09-28T09:39:39.446Z,61.41
2022-09-28T09:42:21.350Z,60.78
2022-09-28T09:45:21.891Z,61.75
2022-09-28T09:47:55.912Z,61.66
2022-09-28T09:50:45.589Z,63.80
2022-09-28T09:53:36.151Z,58.52
2022-09-28T09:56:38.608Z,60.37
2022-09-28T09:59:15.214Z,56.17
2022-09-28T10:01:42.165Z,56.60
2022-09-28T10:04:19.481Z,53.29
2022-09-28T10:06:49.894Z,52.14
2022-09-28T10:09:26.551Z,52.62
2022-09-28T10:11:54.479Z,49.66
2022-09-28T10:14:24.223Z,53.97
2022-09-28T10:16:57.076Z,54.12
2022-09-28T10:19:35.295Z,53.23
2022-09-28T10:22:05.973Z,49.42
2022-09-28T10:24:39.086Z,48.21
2022-09-28T10:27:14.303Z,48.47
2022-09-28T10:29:52.486Z,47.06
2022-09-28T10:32:26.286Z,46.55
2022-09-28T10:34:55.182Z,47.98
2022-09-28T10:37:22.520Z,47.32
2022-09-28T10:39:55.391Z,48.30
2022-09-28T10:42:33.809Z,46.92
2022-09-28T10:45:12.820Z,46.79
2022-09-28T10:47:44.389Z,47.85
2022-09-28T10:50:22.737Z,48.46
2022-09-28T10:52:49.805Z,48.02
2022-09-28T10:55:30.753Z,46.25
2022-09-28T10:57:57.551Z,46.08
2022-09-28T11:00:32.260Z,45.59
2022-09-28T11:03:00.713Z,45.66
2022-09-28T11:05:28.076Z,44.66
2022-09-28T11:07:57.069Z,43.73
2022-09-28T11:10:26.608Z,42.38
2022-09-28T11:12:54.464Z,43.39
2022-09-28T11:15:27.328Z,43.82
2022-09-28T11:17:54.094Z,41.09
2022-09-28T11:20:28.312Z,42.23
2022-09-28T11:23:00.261Z,41.20
2022-09-28T11:25:29.289Z,42.43
2022-09-28T11:27:58.090Z,42.34
2022-09-28T11:30:24.806Z,40.27
2022-09-28T11:32:55.173Z,38.64
2022-09-28T11:35:37.667Z,39.67
2022-09-28T11:38:04.626Z,40.98
2022-09-28T11:40:50.845Z,40.56
2022-09-28T11:43:29.770Z,41.22
2022-09-28T11:46:25.681Z,40.54
2022-09-28T11:48:58.172Z,40.00
2022-09-28T11:51:30.420Z,40.16
2022-09-28T11:54:03.404Z,39.51
2022-09-28T11:56:50.653Z,40.74
2022-09-28T11:59:24.670Z,40.44
2022-09-28T12:02:01.299Z,42.27
2022-09-28T12:04:38.091Z,40.34
2022-09-28T12:07:12.542Z,40.01
2022-09-28T12:09:49.321Z,40.14
2022-09-28T12:12:36.588Z,41.14
2022-09-28T12:15:20.042Z,40.03
2022-09-28T12:18:03.017Z,40.34
2022-09-28T12:20:34.641Z,39.92
2022-09-28T12:23:07.609Z,40.47
2022-09-28T12:25:49.641Z,40.22
2022-09-28T12:28:25.871Z,39.61
2022-09-28T12:30:54.728Z,40.80
2022-09-28T12:33:21.461Z,38.56
2022-09-28T12:36:12.767Z,37.60
2022-09-28T12:39:18.027Z,37.98
2022-09-28T12:41:58.995Z,38.83
2022-09-28T12:44:43.307Z,38.67
2022-09-28T12:47:39.085Z,38.19
2022-09-28T12:53:04.162Z,38.81
2022-09-28T12:56:18.095Z,37.68
2022-09-28T12:59:13.487Z,37.44
2022-09-28T13:02:16.347Z,37.68
2022-09-28T13:05:02.283Z,38.16
2022-09-28T13:07:56.963Z,37.97
2022-09-28T13:10:42.940Z,38.78
2022-09-28T13:13:33.464Z,37.71
2022-09-28T13:16:08.313Z,36.79
2022-09-28T13:18:43.280Z,37.33
2022-09-28T13:21:30.223Z,37.10
2022-09-28T13:24:14.754Z,36.97
2022-09-28T13:26:48.032Z,36.00
2022-09-28T13:29:18.889Z,36.13
2022-09-28T13:31:50.698Z,37.89
2022-09-28T13:34:26.109Z,37.91
2022-09-28T13:37:14.632Z,37.38
2022-09-28T13:39:44.369Z,36.41
2022-09-28T13:42:42.249Z,36.73
2022-09-28T13:45:11.868Z,37.19
2022-09-28T13:47:46.820Z,38.13
2022-09-28T13:50:26.996Z,38.88
2022-09-28T13:53:05.885Z,39.17
2022-09-28T13:55:59.921Z,40.00
2022-09-28T13:58:35.523Z,39.88
2022-09-28T14:01:14.534Z,39.52
2022-09-28T14:04:10.692Z,40.46
2022-09-28T14:06:44.112Z,39.79
2022-09-28T14:09:14.361Z,39.15
2022-09-28T14:11:53.636Z,38.75
2022-09-28T14:14:30.664Z,38.16
2022-09-28T14:17:27.241Z,38.48
2022-09-28T14:20:01.227Z,38.14
2022-09-28T14:22:50.345Z,38.63
2022-09-28T14:25:23.753Z,38.50
2022-09-28T14:28:06.691Z,39.44
2022-09-28T14:30:42.698Z,39.71
2022-09-28T14:33:17.394Z,39.57
2022-09-28T14:35:49.101Z,39.34
2022-09-28T14:38:41.602Z,39.85
2022-09-28T14:41:29.841Z,39.45
2022-09-28T14:44:03.052Z,39.09
2022-09-28T14:46:36.273Z,39.44
2022-09-28T14:49:26.809Z,39.23
2022-09-28T14:51:53.962Z,40.02
2022-09-28T14:54:22.992Z,39.41
2022-09-28T14:56:52.656Z,39.29
2022-09-28T14:59:19.244Z,40.05
2022-09-28T15:02:00.944Z,40.50
2022-09-28T15:04:31.063Z,40.69
2022-09-28T15:06:58.323Z,40.39
2022-09-28T15:09:33.492Z,40.38
2022-09-28T15:12:24.029Z,39.76
2022-09-28T15:14:59.644Z,39.69
2022-09-28T15:17:38.502Z,39.69
2022-09-28T15:20:30.598Z,39.82
2022-09-28T15:23:00.254Z,39.56
2022-09-28T15:25:33.179Z,39.67
2022-09-28T15:28:08.321Z,40.42
2022-09-28T15:30:36.739Z,39.99
2022-09-28T15:33:23.513Z,39.98
2022-09-28T15:35:54.209Z,40.71
2022-09-28T15:38:21.121Z,41.07
2022-09-28T15:40:48.199Z,40.89
2022-09-28T15:43:24.322Z,40.87
2022-09-28T15:46:07.441Z,40.96
2022-09-28T15:49:02.739Z,41.33
2022-09-28T15:51:30.681Z,41.49
2022-09-28T15:54:11.895Z,41.08
2022-09-28T15:56:56.973Z,41.51
2022-09-28T15:59:37.169Z,41.74
2022-09-28T16:02:19.564Z,42.13
2022-09-28T16:04:50.665Z,42.19
2022-09-28T16:07:33.511Z,42.48
2022-09-28T16:10:03.085Z,42.35
2022-09-28T16:12:41.178Z,42.13
2022-09-28T16:15:18.420Z,42.68
2022-09-28T16:17:52.655Z,43.74
2022-09-28T16:20:26.604Z,43.67
2022-09-28T16:22:54.014Z,44.34
2022-09-28T16:25:24.840Z,44.55
2022-09-28T16:27:54.152Z,45.65
2022-09-28T16:30:30.308Z,44.81
2022-09-28T16:33:01.418Z,45.15
2022-09-28T16:35:31.095Z,44.46
2022-09-28T16:38:11.099Z,44.06
2022-09-28T16:40:42.832Z,44.26
2022-09-28T16:43:27.229Z,45.57
2022-09-28T16:45:59.872Z,45.10
2022-09-28T16:48:31.754Z,44.45
2022-09-28T16:50:59.389Z,45.94
2022-09-28T16:53:45.251Z,46.82
2022-09-28T16:56:12.797Z,47.13
2022-09-28T16:58:39.744Z,47.06
2022-09-28T17:01:09.804Z,48.44
2022-09-28T17:03:36.719Z,46.41
2022-09-28T17:06:06.374Z,47.89
2022-09-28T17:08:33.915Z,48.09
2022-09-28T17:11:24.264Z,47.11
2022-09-28T17:13:51.953Z,47.20
2022-09-28T17:16:37.054Z,47.31
2022-09-28T17:19:20.134Z,47.55
2022-09-28T17:21:48.216Z,47.64
2022-09-28T17:24:15.024Z,47.90
2022-09-28T17:26:44.449Z,48.29
2022-09-28T17:29:14.961Z,48.15
2022-09-28T17:31:43.970Z,48.94
2022-09-28T17:34:11.962Z,48.94
2022-09-28T17:36:40.701Z,48.89
2022-09-28T17:39:12.169Z,48.30
2022-09-28T17:41:39.109Z,48.58
2022-09-28T17:44:06.545Z,48.66
2022-09-28T17:46:36.227Z,49.30
2022-09-28T17:49:06.054Z,49.64
2022-09-28T17:51:35.387Z,50.11
2022-09-28T17:54:02.322Z,50.26
2022-09-28T17:56:32.507Z,50.61
2022-09-28T17:59:03.193Z,51.15
2022-09-28T18:01:34.519Z,52.47
2022-09-28T18:04:06.800Z,55.56
2022-09-28T18:06:34.466Z,60.82
2022-09-28T18:09:03.217Z,76.04
2022-09-28T18:11:31.168Z,87.69
2022-09-28T18:13:57.969Z,92.92
2022-09-28T18:16:25.024Z,90.49
2022-09-28T18:18:51.896Z,90.61
2022-09-28T18:21:18.554Z,89.57
2022-09-28T18:23:45.281Z,81.26
2022-09-28T18:26:13.425Z,93.85
2022-09-28T18:28:40.592Z,94.19
2022-09-28T18:31:13.125Z,94.25
2022-09-28T18:33:40.895Z,99.79
2022-09-28T18:36:08.297Z,100.00
2022-09-28T18:38:35.823Z,100.00
2022-09-28T18:41:16.210Z,100.00
2022-09-28T18:43:49.446Z,100.00
2022-09-28T18:46:18.406Z,100.00
2022-09-28T18:48:45.586Z,96.90
2022-09-28T18:51:12.842Z,100.00
2022-09-28T18:53:40.596Z,100.00
2022-09-28T18:56:10.387Z,100.00
2022-09-28T18:58:38.718Z,100.00
2022-09-28T19:04:00.738Z,100.00
2022-09-28T19:06:28.098Z,100.00
2022-09-28T19:08:58.058Z,100.00
2022-09-28T19:11:26.484Z,100.00
2022-09-28T19:13:54.775Z,100.00
2022-09-28T19:16:24.492Z,100.00
2022-09-28T19:18:53.785Z,100.00
2022-09-28T19:21:22.683Z,100.00
2022-09-28T19:23:50.101Z,100.00
2022-09-28T19:26:27.609Z,100.00
2022-09-28T19:28:56.835Z,100.00
2022-09-28T19:31:24.958Z,100.00
2022-09-28T19:33:52.089Z,100.00
2022-09-28T19:36:24.107Z,100.00
2022-09-28T19:38:52.238Z,100.00
2022-09-28T19:41:44.358Z,94.46
2022-09-28T19:44:27.805Z,92.05
2022-09-28T19:46:57.177Z,91.04
2022-09-28T19:49:25.891Z,93.08
2022-09-28T19:55:00.017Z,100.00
2022-09-28T19:57:29.838Z,100.00
2022-09-28T20:00:02.113Z,100.00
2022-09-28T20:02:29.518Z,100.00
2022-09-28T20:04:56.310Z,100.00
2022-09-28T20:07:23.132Z,100.00
2022-09-28T20:09:49.887Z,100.00
2022-09-28T20:12:16.582Z,100.00
2022-09-28T20:14:43.299Z,100.00
2022-09-28T20:17:10.071Z,100.00
2022-09-28T20:19:36.795Z,100.00
2022-09-28T20:22:03.993Z,100.00
2022-09-28T20:24:31.486Z,100.00
2022-09-28T20:26:58.363Z,100.00
2022-09-28T20:29:25.371Z,100.00
2022-09-28T20:31:52.571Z,100.00
2022-09-28T20:34:19.384Z,100.00
2022-09-28T20:36:46.157Z,100.00
2022-09-28T20:39:13.558Z,100.00
2022-09-28T20:41:41.164Z,100.00
2022-09-28T20:44:07.876Z,100.00
2022-09-28T20:46:35.999Z,100.00
2022-09-28T20:49:03.675Z,100.00
2022-09-28T20:51:30.816Z,100.00
2022-09-28T20:53:58.998Z,100.00
2022-09-28T20:56:34.545Z,100.00
2022-09-28T20:59:01.230Z,100.00
2022-09-28T21:01:30.121Z,100.00
2022-09-28T21:03:58.164Z,100.00
2022-09-28T21:06:30.347Z,100.00
2022-09-28T21:08:57.584Z,100.00
2022-09-28T21:11:26.096Z,100.00
2022-09-28T21:14:01.809Z,100.00
2022-09-28T21:16:30.892Z,100.00
2022-09-28T21:18:57.742Z,100.00
2022-09-28T21:21:26.134Z,100.00
2022-09-28T21:23:54.361Z,100.00
2022-09-28T21:26:26.905Z,100.00
2022-09-28T21:29:14.505Z,100.00
2022-09-28T21:31:45.808Z,100.00
2022-09-28T21:34:20.069Z,100.00
2022-09-28T21:36:49.046Z,100.00
2022-09-28T21:39:15.745Z,100.00
2022-09-28T21:41:42.717Z,100.00
2022-09-28T21:44:09.834Z,100.00
2022-09-28T21:46:38.210Z,100.00
2022-09-28T21:49:09.574Z,100.00
2022-09-28T21:51:37.638Z,100.00
2022-09-28T21:54:04.539Z,100.00
2022-09-28T21:56:31.344Z,100.00
2022-09-28T21:58:58.162Z,100.00
2022-09-28T22:01:26.165Z,100.00
2022-09-28T22:03:55.028Z,100.00
2022-09-28T22:06:23.514Z,100.00
2022-09-28T22:08:51.178Z,100.00
2022-09-28T22:11:20.918Z,100.00
2022-09-28T22:13:53.020Z,100.00
2022-09-28T22:16:22.825Z,100.00
2022-09-28T22:18:50.355Z,100.00
2022-09-28T22:21:20.523Z,100.00
2022-09-28T22:23:48.300Z,100.00
2022-09-28T22:26:25.713Z,100.00
2022-09-28T22:28:53.746Z,100.00
2022-09-28T22:31:23.437Z,100.00
2022-09-28T22:33:50.148Z,100.00
2022-09-28T22:36:17.110Z,100.00
2022-09-28T22:38:44.939Z,100.00
2022-09-28T22:41:12.626Z,100.00
2022-09-28T22:43:39.459Z,100.00
2022-09-28T22:46:08.774Z,100.00
2022-09-28T22:48:35.787Z,100.00
2022-09-28T22:51:04.766Z,100.00
2022-09-28T22:53:31.515Z,100.00
2022-09-28T22:56:00.560Z,100.00
2022-09-28T22:58:27.990Z,100.00
2022-09-28T23:00:56.457Z,100.00
2022-09-28T23:03:23.380Z,100.00
2022-09-28T23:05:56.639Z,100.00
2022-09-28T23:08:24.352Z,100.00
2022-09-28T23:10:51.505Z,100.00
2022-09-28T23:13:18.702Z,100.00
2022-09-28T23:15:55.898Z,100.00
2022-09-28T23:18:23.313Z,100.00
2022-09-28T23:20:58.153Z,100.00
2022-09-28T23:23:25.575Z,100.00
2022-09-28T23:25:52.963Z,100.00
2022-09-28T23:28:21.840Z,100.00
2022-09-28T23:30:49.190Z,100.00
2022-09-28T23:33:17.667Z,100.00
2022-09-28T23:35:44.974Z,100.00
2022-09-28T23:38:18.370Z,100.00
2022-09-28T23:40:46.734Z,100.00
2022-09-28T23:43:14.476Z,100.00
2022-09-28T23:45:43.228Z,100.00
2022-09-28T23:48:10.535Z,100.00
2022-09-28T23:50:37.429Z,100.00
2022-09-28T23:53:04.230Z,100.00
2022-09-28T23:55:30.917Z,100.00
2022-09-28T23:57:58.773Z,100.00
